Kruzenshtern — UCVK — position and weather

sailwx.info

Track history (hours):
 
Tides and Currents Weather Stations Pressure Air Temp Water Temp Dewpoint Dewpoint Depression Visibility Wind Speed Wind Dir Waves Ship Positions

Kruzenshtern (Russia)

ex-Padua.

Last reported at 2019-Dec-31 19:00 UTC. Time now 2020-Jan-19 17:13 UTC.
Position N 27°44' W 015°20'.
Warning: this ship's position is 18 days out of date.

Length 114 m; draft 6 m.

Type: Sailing vessel. MMSI: 273243700.

Date/timePositionNaut miles runAvg speedWind from/ knotsBaromVisibWave heightAir tempDewpointWater temp
2019-Dec-31 19:00N 27°44' W 015°20'9 9.3
2019-Dec-31 18:00N 27°53' W 015°16'510.2
2019-Dec-31 17:30N 27°58' W 015°16'13 5.9
2019-Dec-31 15:21N 28°08' W 015°25'0 0.0
2019-Dec-31 14:24N 28°08' W 015°25'0 0.0
2019-Dec-31 13:51N 28°08' W 015°25'0 0.0
2019-Dec-31 12:30N 28°08' W 015°25'0 0.0
2019-Dec-31 11:27N 28°08' W 015°25'0 0.0
2019-Dec-31 07:57N 28°08' W 015°25'0 0.0
2019-Dec-31 07:30N 28°08' W 015°25'0 0.0
2019-Dec-31 06:54N 28°08' W 015°25'0 0.0
2019-Dec-31 06:27N 28°08' W 015°25'0 0.0
2019-Dec-31 05:54N 28°08' W 015°25'0 0.0
2019-Dec-31 05:27N 28°08' W 015°25'0 0.0
2019-Dec-31 04:54N 28°08' W 015°25'0 0.0
2019-Dec-31 04:27N 28°08' W 015°25'0 0.0
2019-Dec-31 03:00N 28°08' W 015°25'0 0.0
2019-Dec-31 01:00N 28°08' W 015°25'0 0.0
2019-Dec-30 21:48N 28°08' W 015°25'0 0.0
2019-Dec-30 19:54N 28°08' W 015°25'0 0.0
2019-Dec-30 17:54N 28°08' W 015°25'0 0.0
2019-Dec-30 15:51N 28°08' W 015°25'5 1.3
2019-Dec-30 11:59N 28°07' W 015°20'1 0.5
2019-Dec-30 10:30N 28°07' W 015°20'3 1.0
2019-Dec-30 07:00N 28°07' W 015°17'6 3.9
2019-Dec-30 05:30N 28°08' W 015°10'0 0.4
2019-Dec-30 05:00N 28°08' W 015°10'0 0.3
2019-Dec-30 03:30N 28°08' W 015°10'1 0.4
2019-Dec-30 02:00N 28°09' W 015°10'17 5.6
2019-Dec-29 23:00N 28°14' W 015°28'20 5.8
2019-Dec-29 19:30N 28°20' W 015°51'6 5.9
2019-Dec-29 18:30N 28°22' W 015°57'17 1.6
2019-Dec-29 08:00N 28°28' W 016°15'0 0.0
2019-Dec-29 03:00N 28°28' W 016°15'0 0.0
2019-Dec-29 02:30N 28°28' W 016°15'0 0.0
2019-Dec-29 01:00N 28°28' W 016°15'0 0.0
2019-Dec-29 00:30N 28°28' W 016°15'0 0.0
2019-Dec-28 23:30N 28°28' W 016°15'0 0.0
2019-Dec-28 22:30N 28°28' W 016°15'0 0.0
2019-Dec-28 20:00N 28°28' W 016°15'0 0.0
2019-Dec-28 18:30N 28°28' W 016°15'0 0.0
2019-Dec-28 18:00N 28°28' W 016°15'0 0.0
2019-Dec-28 17:30N 28°28' W 016°15'0 0.0
2019-Dec-28 16:30N 28°28' W 016°15'0 0.0
2019-Dec-28 16:00N 28°28' W 016°15'0 0.0
2019-Dec-28 15:00N 28°28' W 016°15'0 0.0
2019-Dec-28 13:00N 28°28' W 016°15'0 0.0
2019-Dec-28 11:30N 28°28' W 016°15'0 0.0
2019-Dec-28 07:30N 28°28' W 016°15'0 0.0
2019-Dec-28 04:00N 28°28' W 016°15'0 0.0
2019-Dec-28 02:00N 28°28' W 016°15'0 0.0
2019-Dec-28 01:30N 28°28' W 016°15'0 0.0
2019-Dec-28 01:00N 28°28' W 016°15'0 0.0
2019-Dec-27 23:30N 28°28' W 016°15'0 0.0
2019-Dec-27 20:30N 28°28' W 016°15'0 0.0
2019-Dec-27 19:30N 28°28' W 016°15'0 0.0
2019-Dec-27 19:00N 28°28' W 016°15'0 0.0
2019-Dec-27 16:30N 28°28' W 016°15'0 0.0
2019-Dec-27 15:30N 28°28' W 016°15'0 0.0
2019-Dec-27 14:30N 28°28' W 016°15'0 0.0
2019-Dec-27 12:30N 28°28' W 016°15'0 0.0
2019-Dec-27 11:57N 28°28' W 016°15'0 0.0
2019-Dec-27 07:00N 28°28' W 016°15'0 0.0
2019-Dec-27 04:30N 28°28' W 016°15'0 0.0
2019-Dec-27 04:00N 28°28' W 016°15'0 0.0
2019-Dec-27 03:30N 28°28' W 016°15'0 0.0
2019-Dec-26 23:30N 28°28' W 016°15'0 0.0
2019-Dec-26 21:00N 28°28' W 016°15'0 0.0
2019-Dec-26 19:00N 28°28' W 016°15'0 0.0
2019-Dec-26 17:30N 28°28' W 016°15'0 0.0
2019-Dec-26 14:00N 28°28' W 016°15'0 0.0
2019-Dec-26 13:27N 28°28' W 016°15'0 0.0
2019-Dec-26 11:30N 28°28' W 016°15'0 0.0
2019-Dec-26 11:00N 28°28' W 016°15'0 0.0
2019-Dec-26 10:30N 28°28' W 016°15'0 0.0
2019-Dec-26 09:00N 28°28' W 016°15'0 0.0
2019-Dec-26 07:30N 28°28' W 016°15'0 0.0
2019-Dec-26 07:00N 28°28' W 016°15'0 0.0
2019-Dec-26 06:30N 28°28' W 016°15'0 0.0
2019-Dec-26 04:30N 28°28' W 016°15'0 0.0
2019-Dec-26 04:00N 28°28' W 016°15'0 0.0
2019-Dec-26 03:30N 28°28' W 016°15'0 0.0
2019-Dec-26 02:30N 28°28' W 016°15'0 0.0
2019-Dec-26 00:30N 28°28' W 016°15'0 0.0
2019-Dec-25 23:00N 28°28' W 016°15'0 0.0
2019-Dec-25 22:30N 28°28' W 016°15'0 0.0
2019-Dec-25 22:00N 28°28' W 016°15'0 0.0
2019-Dec-25 19:00N 28°28' W 016°15'0 0.0
2019-Dec-25 16:30N 28°28' W 016°15'0 0.0
2019-Dec-25 15:57N 28°28' W 016°15'0 0.0
2019-Dec-25 14:00N 28°28' W 016°15'0 0.0
2019-Dec-25 12:00N 28°28' W 016°15'0 0.0
2019-Dec-25 11:00N 28°28' W 016°15'0 0.3
2019-Dec-25 09:30N 28°27' W 016°15'2 3.4
2019-Dec-25 09:00N 28°28' W 016°13'4 8.0
2019-Dec-25 08:30N 28°27' W 016°08'7 7.4
2019-Dec-25 07:30N 28°27' W 016°00'7 7.4
2019-Dec-25 06:30N 28°30' W 015°53'11 5.4
2019-Dec-25 04:30N 28°39' W 015°45'2 1.6
2019-Dec-25 03:29N 28°40' W 015°44'11 7.4
2019-Dec-25 02:00N 28°50' W 015°39'12 7.9
2019-Dec-25 00:30N 29°01' W 015°33'18 7.3
2019-Dec-24 22:00N 29°17' W 015°23'7 6.8
2019-Dec-24 21:00N 29°23' W 015°20'10 6.8
2019-Dec-24 19:30N 29°33' W 015°15'17 7.0
2019-Dec-24 17:00N 29°48' W 015°07'3 6.8
2019-Dec-24 16:30N 29°52' W 015°05'3 6.9
2019-Dec-24 16:00N 29°55' W 015°04'3 6.9
2019-Dec-24 15:30N 29°58' W 015°02'30 7.1
2019-Dec-24 11:16N 30°25' W 014°47'24 7.4
2019-Dec-24 08:00N 30°47' W 014°36'61 7.6
2019-Dec-23 23:59N 31°41' W 014°04'7 7.7
2019-Dec-23 23:06N 31°48' W 014°01'385 9.3
2019-Dec-22 05:35N 37°28' W 010°23'3 9.2
2019-Dec-22 05:13N 37°31' W 010°22'  
Track history (hours):
 
Tides and Currents Weather Stations Pressure Air Temp Water Temp Dewpoint Dewpoint Depression Visibility Wind Speed Wind Dir Waves Ship Positions

Kruzenshtern (Russia)

ex-Padua.

Last reported at 2019-Dec-31 19:00 UTC. Time now 2020-Jan-19 17:13 UTC.
Position N 27°44' W 015°20'.
Warning: this ship's position is 18 days out of date.

Length 114 m; draft 6 m.

Type: Sailing vessel. MMSI: 273243700.

Date/timePositionNaut miles runAvg speedWind from/ knotsBaromVisibWave heightAir tempDewpointWater temp
2019-Dec-31 19:00N 27°44' W 015°20'9 9.3
2019-Dec-31 18:00N 27°53' W 015°16'510.2
2019-Dec-31 17:30N 27°58' W 015°16'13 5.9
2019-Dec-31 15:21N 28°08' W 015°25'0 0.0
2019-Dec-31 14:24N 28°08' W 015°25'0 0.0
2019-Dec-31 13:51N 28°08' W 015°25'0 0.0
2019-Dec-31 12:30N 28°08' W 015°25'0 0.0
2019-Dec-31 11:27N 28°08' W 015°25'0 0.0
2019-Dec-31 07:57N 28°08' W 015°25'0 0.0
2019-Dec-31 07:30N 28°08' W 015°25'0 0.0
2019-Dec-31 06:54N 28°08' W 015°25'0 0.0
2019-Dec-31 06:27N 28°08' W 015°25'0 0.0
2019-Dec-31 05:54N 28°08' W 015°25'0 0.0
2019-Dec-31 05:27N 28°08' W 015°25'0 0.0
2019-Dec-31 04:54N 28°08' W 015°25'0 0.0
2019-Dec-31 04:27N 28°08' W 015°25'0 0.0
2019-Dec-31 03:00N 28°08' W 015°25'0 0.0
2019-Dec-31 01:00N 28°08' W 015°25'0 0.0
2019-Dec-30 21:48N 28°08' W 015°25'0 0.0
2019-Dec-30 19:54N 28°08' W 015°25'0 0.0
2019-Dec-30 17:54N 28°08' W 015°25'0 0.0
2019-Dec-30 15:51N 28°08' W 015°25'5 1.3
2019-Dec-30 11:59N 28°07' W 015°20'1 0.5
2019-Dec-30 10:30N 28°07' W 015°20'3 1.0
2019-Dec-30 07:00N 28°07' W 015°17'6 3.9
2019-Dec-30 05:30N 28°08' W 015°10'0 0.4
2019-Dec-30 05:00N 28°08' W 015°10'0 0.3
2019-Dec-30 03:30N 28°08' W 015°10'1 0.4
2019-Dec-30 02:00N 28°09' W 015°10'17 5.6
2019-Dec-29 23:00N 28°14' W 015°28'20 5.8
2019-Dec-29 19:30N 28°20' W 015°51'6 5.9
2019-Dec-29 18:30N 28°22' W 015°57'17 1.6
2019-Dec-29 08:00N 28°28' W 016°15'0 0.0
2019-Dec-29 03:00N 28°28' W 016°15'0 0.0
2019-Dec-29 02:30N 28°28' W 016°15'0 0.0
2019-Dec-29 01:00N 28°28' W 016°15'0 0.0
2019-Dec-29 00:30N 28°28' W 016°15'0 0.0
2019-Dec-28 23:30N 28°28' W 016°15'0 0.0
2019-Dec-28 22:30N 28°28' W 016°15'0 0.0
2019-Dec-28 20:00N 28°28' W 016°15'0 0.0
2019-Dec-28 18:30N 28°28' W 016°15'0 0.0
2019-Dec-28 18:00N 28°28' W 016°15'0 0.0
2019-Dec-28 17:30N 28°28' W 016°15'0 0.0
2019-Dec-28 16:30N 28°28' W 016°15'0 0.0
2019-Dec-28 16:00N 28°28' W 016°15'0 0.0
2019-Dec-28 15:00N 28°28' W 016°15'0 0.0
2019-Dec-28 13:00N 28°28' W 016°15'0 0.0
2019-Dec-28 11:30N 28°28' W 016°15'0 0.0
2019-Dec-28 07:30N 28°28' W 016°15'0 0.0
2019-Dec-28 04:00N 28°28' W 016°15'0 0.0
2019-Dec-28 02:00N 28°28' W 016°15'0 0.0
2019-Dec-28 01:30N 28°28' W 016°15'0 0.0
2019-Dec-28 01:00N 28°28' W 016°15'0 0.0
2019-Dec-27 23:30N 28°28' W 016°15'0 0.0
2019-Dec-27 20:30N 28°28' W 016°15'0 0.0
2019-Dec-27 19:30N 28°28' W 016°15'0 0.0
2019-Dec-27 19:00N 28°28' W 016°15'0 0.0
2019-Dec-27 16:30N 28°28' W 016°15'0 0.0
2019-Dec-27 15:30N 28°28' W 016°15'0 0.0
2019-Dec-27 14:30N 28°28' W 016°15'0 0.0
2019-Dec-27 12:30N 28°28' W 016°15'0 0.0
2019-Dec-27 11:57N 28°28' W 016°15'0 0.0
2019-Dec-27 07:00N 28°28' W 016°15'0 0.0
2019-Dec-27 04:30N 28°28' W 016°15'0 0.0
2019-Dec-27 04:00N 28°28' W 016°15'0 0.0
2019-Dec-27 03:30N 28°28' W 016°15'0 0.0
2019-Dec-26 23:30N 28°28' W 016°15'0 0.0
2019-Dec-26 21:00N 28°28' W 016°15'0 0.0
2019-Dec-26 19:00N 28°28' W 016°15'0 0.0
2019-Dec-26 17:30N 28°28' W 016°15'0 0.0
2019-Dec-26 14:00N 28°28' W 016°15'0 0.0
2019-Dec-26 13:27N 28°28' W 016°15'0 0.0
2019-Dec-26 11:30N 28°28' W 016°15'0 0.0
2019-Dec-26 11:00N 28°28' W 016°15'0 0.0
2019-Dec-26 10:30N 28°28' W 016°15'0 0.0
2019-Dec-26 09:00N 28°28' W 016°15'0 0.0
2019-Dec-26 07:30N 28°28' W 016°15'0 0.0
2019-Dec-26 07:00N 28°28' W 016°15'0 0.0
2019-Dec-26 06:30N 28°28' W 016°15'0 0.0
2019-Dec-26 04:30N 28°28' W 016°15'0 0.0
2019-Dec-26 04:00N 28°28' W 016°15'0 0.0
2019-Dec-26 03:30N 28°28' W 016°15'0 0.0
2019-Dec-26 02:30N 28°28' W 016°15'0 0.0
2019-Dec-26 00:30N 28°28' W 016°15'0 0.0
2019-Dec-25 23:00N 28°28' W 016°15'0 0.0
2019-Dec-25 22:30N 28°28' W 016°15'0 0.0
2019-Dec-25 22:00N 28°28' W 016°15'0 0.0
2019-Dec-25 19:00N 28°28' W 016°15'0 0.0
2019-Dec-25 16:30N 28°28' W 016°15'0 0.0
2019-Dec-25 15:57N 28°28' W 016°15'0 0.0
2019-Dec-25 14:00N 28°28' W 016°15'0 0.0
2019-Dec-25 12:00N 28°28' W 016°15'0 0.0
2019-Dec-25 11:00N 28°28' W 016°15'0 0.3
2019-Dec-25 09:30N 28°27' W 016°15'2 3.4
2019-Dec-25 09:00N 28°28' W 016°13'4 8.0
2019-Dec-25 08:30N 28°27' W 016°08'7 7.4
2019-Dec-25 07:30N 28°27' W 016°00'7 7.4
2019-Dec-25 06:30N 28°30' W 015°53'11 5.4
2019-Dec-25 04:30N 28°39' W 015°45'2 1.6
2019-Dec-25 03:29N 28°40' W 015°44'11 7.4
2019-Dec-25 02:00N 28°50' W 015°39'12 7.9
2019-Dec-25 00:30N 29°01' W 015°33'18 7.3
2019-Dec-24 22:00N 29°17' W 015°23'7 6.8
2019-Dec-24 21:00N 29°23' W 015°20'10 6.8
2019-Dec-24 19:30N 29°33' W 015°15'17 7.0
2019-Dec-24 17:00N 29°48' W 015°07'3 6.8
2019-Dec-24 16:30N 29°52' W 015°05'3 6.9
2019-Dec-24 16:00N 29°55' W 015°04'3 6.9
2019-Dec-24 15:30N 29°58' W 015°02'30 7.1
2019-Dec-24 11:16N 30°25' W 014°47'24 7.4
2019-Dec-24 08:00N 30°47' W 014°36'61 7.6
2019-Dec-23 23:59N 31°41' W 014°04'7 7.7
2019-Dec-23 23:06N 31°48' W 014°01'385 9.3
2019-Dec-22 05:35N 37°28' W 010°23'3 9.2
2019-Dec-22 05:13N 37°31' W 010°22'  

Dump ship's entire track history